sensor_id;sensor_type;location;lat;lon;timestamp;P1;durP1;ratioP1;P2;durP2;ratioP2
11524;SDS011;5819;49.648;8.330;2022-08-06T00:02:24;1.92;;;1.70;;
11524;SDS011;5819;49.648;8.330;2022-08-06T00:04:57;2.63;;;1.88;;
11524;SDS011;5819;49.648;8.330;2022-08-06T00:07:29;3.90;;;1.98;;
11524;SDS011;5819;49.648;8.330;2022-08-06T00:10:10;3.08;;;1.75;;
11524;SDS011;5819;49.648;8.330;2022-08-06T00:12:40;4.60;;;1.63;;
11524;SDS011;5819;49.648;8.330;2022-08-06T00:15:11;4.30;;;2.42;;
11524;SDS011;5819;49.648;8.330;2022-08-06T00:17:42;5.25;;;2.03;;
11524;SDS011;5819;49.648;8.330;2022-08-06T00:20:12;3.00;;;1.70;;
11524;SDS011;5819;49.648;8.330;2022-08-06T00:22:56;3.60;;;1.50;;
11524;SDS011;5819;49.648;8.330;2022-08-06T00:25:25;3.05;;;1.60;;
11524;SDS011;5819;49.648;8.330;2022-08-06T00:27:53;4.50;;;1.90;;
11524;SDS011;5819;49.648;8.330;2022-08-06T00:30:22;2.72;;;1.70;;
11524;SDS011;5819;49.648;8.330;2022-08-06T00:32:51;2.55;;;1.85;;
11524;SDS011;5819;49.648;8.330;2022-08-06T00:35:22;3.08;;;1.80;;
11524;SDS011;5819;49.648;8.330;2022-08-06T00:37:54;3.42;;;1.55;;
11524;SDS011;5819;49.648;8.330;2022-08-06T00:40:25;2.50;;;1.75;;
11524;SDS011;5819;49.648;8.330;2022-08-06T00:42:56;2.72;;;2.00;;
11524;SDS011;5819;49.648;8.330;2022-08-06T00:45:31;3.42;;;1.55;;
11524;SDS011;5819;49.648;8.330;2022-08-06T00:48:12;5.03;;;1.90;;
11524;SDS011;5819;49.648;8.330;2022-08-06T00:51:01;2.15;;;1.70;;
11524;SDS011;5819;49.648;8.330;2022-08-06T00:53:37;5.32;;;1.70;;
11524;SDS011;5819;49.648;8.330;2022-08-06T00:56:09;3.00;;;1.88;;
11524;SDS011;5819;49.648;8.330;2022-08-06T00:58:38;2.15;;;1.70;;
11524;SDS011;5819;49.648;8.330;2022-08-06T01:01:07;1.90;;;1.73;;
11524;SDS011;5819;49.648;8.330;2022-08-06T01:03:45;2.10;;;1.70;;
11524;SDS011;5819;49.648;8.330;2022-08-06T01:06:18;3.08;;;1.77;;
11524;SDS011;5819;49.648;8.330;2022-08-06T01:09:07;1.73;;;1.58;;
11524;SDS011;5819;49.648;8.330;2022-08-06T01:11:35;3.78;;;1.80;;
11524;SDS011;5819;49.648;8.330;2022-08-06T01:14:04;4.75;;;1.80;;
11524;SDS011;5819;49.648;8.330;2022-08-06T01:16:38;2.45;;;1.70;;
11524;SDS011;5819;49.648;8.330;2022-08-06T01:19:18;3.75;;;1.90;;
11524;SDS011;5819;49.648;8.330;2022-08-06T01:22:24;2.72;;;2.00;;
11524;SDS011;5819;49.648;8.330;2022-08-06T01:25:18;2.72;;;1.80;;
11524;SDS011;5819;49.648;8.330;2022-08-06T01:28:15;4.32;;;1.85;;
11524;SDS011;5819;49.648;8.330;2022-08-06T01:30:57;2.58;;;1.60;;
11524;SDS011;5819;49.648;8.330;2022-08-06T01:33:35;3.63;;;1.80;;
11524;SDS011;5819;49.648;8.330;2022-08-06T01:36:14;2.08;;;1.70;;
11524;SDS011;5819;49.648;8.330;2022-08-06T01:38:53;3.45;;;1.75;;
11524;SDS011;5819;49.648;8.330;2022-08-06T01:41:29;4.20;;;1.90;;
11524;SDS011;5819;49.648;8.330;2022-08-06T01:44:30;1.98;;;1.50;;
11524;SDS011;5819;49.648;8.330;2022-08-06T01:47:02;3.38;;;2.08;;
11524;SDS011;5819;49.648;8.330;2022-08-06T01:49:43;3.95;;;2.10;;
11524;SDS011;5819;49.648;8.330;2022-08-06T01:52:30;3.05;;;1.65;;
11524;SDS011;5819;49.648;8.330;2022-08-06T01:55:04;3.95;;;1.98;;
11524;SDS011;5819;49.648;8.330;2022-08-06T01:57:40;2.63;;;1.58;;
11524;SDS011;5819;49.648;8.330;2022-08-06T02:00:33;3.33;;;1.58;;
11524;SDS011;5819;49.648;8.330;2022-08-06T02:03:13;3.38;;;1.70;;
11524;SDS011;5819;49.648;8.330;2022-08-06T02:05:48;2.45;;;1.63;;
11524;SDS011;5819;49.648;8.330;2022-08-06T02:08:24;2.38;;;1.85;;
11524;SDS011;5819;49.648;8.330;2022-08-06T02:11:06;3.97;;;1.85;;
11524;SDS011;5819;49.648;8.330;2022-08-06T02:13:57;3.80;;;2.00;;
11524;SDS011;5819;49.648;8.330;2022-08-06T02:16:30;2.58;;;1.92;;
11524;SDS011;5819;49.648;8.330;2022-08-06T02:19:01;2.22;;;1.67;;
11524;SDS011;5819;49.648;8.330;2022-08-06T02:21:40;3.67;;;1.80;;
11524;SDS011;5819;49.648;8.330;2022-08-06T02:24:16;5.30;;;2.25;;
11524;SDS011;5819;49.648;8.330;2022-08-06T02:26:46;3.97;;;1.40;;
11524;SDS011;5819;49.648;8.330;2022-08-06T02:29:16;2.10;;;1.30;;
11524;SDS011;5819;49.648;8.330;2022-08-06T02:31:49;3.90;;;1.40;;
11524;SDS011;5819;49.648;8.330;2022-08-06T02:34:18;1.75;;;1.15;;
11524;SDS011;5819;49.648;8.330;2022-08-06T02:36:57;2.97;;;1.48;;
11524;SDS011;5819;49.648;8.330;2022-08-06T02:39:32;2.40;;;1.77;;
11524;SDS011;5819;49.648;8.330;2022-08-06T02:42:18;4.53;;;1.45;;
11524;SDS011;5819;49.648;8.330;2022-08-06T02:44:58;3.75;;;1.40;;
11524;SDS011;5819;49.648;8.330;2022-08-06T02:47:31;1.42;;;1.17;;
11524;SDS011;5819;49.648;8.330;2022-08-06T02:50:24;2.75;;;1.20;;
11524;SDS011;5819;49.648;8.330;2022-08-06T02:53:02;2.67;;;1.40;;
11524;SDS011;5819;49.648;8.330;2022-08-06T02:55:51;2.05;;;1.30;;
11524;SDS011;5819;49.648;8.330;2022-08-06T02:58:23;3.35;;;1.50;;
11524;SDS011;5819;49.648;8.330;2022-08-06T03:01:05;3.75;;;1.58;;
11524;SDS011;5819;49.648;8.330;2022-08-06T03:03:38;3.42;;;1.75;;
11524;SDS011;5819;49.648;8.330;2022-08-06T03:06:21;2.35;;;1.52;;
11524;SDS011;5819;49.648;8.330;2022-08-06T03:08:53;3.83;;;1.85;;
11524;SDS011;5819;49.648;8.330;2022-08-06T03:11:23;3.38;;;1.40;;
11524;SDS011;5819;49.648;8.330;2022-08-06T03:13:57;2.05;;;1.52;;
11524;SDS011;5819;49.648;8.330;2022-08-06T03:16:27;2.97;;;1.60;;
11524;SDS011;5819;49.648;8.330;2022-08-06T03:19:03;2.28;;;1.30;;
11524;SDS011;5819;49.648;8.330;2022-08-06T03:21:52;3.95;;;1.38;;
11524;SDS011;5819;49.648;8.330;2022-08-06T03:24:23;1.90;;;1.50;;
11524;SDS011;5819;49.648;8.330;2022-08-06T03:26:53;2.75;;;1.52;;
11524;SDS011;5819;49.648;8.330;2022-08-06T03:29:25;1.90;;;1.30;;
11524;SDS011;5819;49.648;8.330;2022-08-06T03:31:56;4.60;;;1.42;;
11524;SDS011;5819;49.648;8.330;2022-08-06T03:34:46;2.22;;;1.45;;
11524;SDS011;5819;49.648;8.330;2022-08-06T03:37:18;2.63;;;1.48;;
11524;SDS011;5819;49.648;8.330;2022-08-06T03:40:08;1.75;;;1.30;;
11524;SDS011;5819;49.648;8.330;2022-08-06T03:42:38;3.20;;;1.50;;
11524;SDS011;5819;49.648;8.330;2022-08-06T03:45:09;5.85;;;1.45;;
11524;SDS011;5819;49.648;8.330;2022-08-06T03:47:58;5.13;;;1.73;;
11524;SDS011;5819;49.648;8.330;2022-08-06T03:50:36;3.97;;;1.40;;
11524;SDS011;5819;49.648;8.330;2022-08-06T03:53:13;2.03;;;1.33;;
11524;SDS011;5819;49.648;8.330;2022-08-06T03:55:50;2.60;;;1.27;;
11524;SDS011;5819;49.648;8.330;2022-08-06T03:58:25;3.22;;;1.20;;
11524;SDS011;5819;49.648;8.330;2022-08-06T04:00:55;1.42;;;1.20;;
11524;SDS011;5819;49.648;8.330;2022-08-06T04:03:29;3.70;;;1.42;;
11524;SDS011;5819;49.648;8.330;2022-08-06T04:06:07;2.30;;;1.33;;
11524;SDS011;5819;49.648;8.330;2022-08-06T04:08:44;3.90;;;1.52;;
11524;SDS011;5819;49.648;8.330;2022-08-06T04:11:14;2.00;;;1.30;;
11524;SDS011;5819;49.648;8.330;2022-08-06T04:14:04;4.28;;;1.30;;
11524;SDS011;5819;49.648;8.330;2022-08-06T04:16:34;1.60;;;1.50;;
11524;SDS011;5819;49.648;8.330;2022-08-06T04:19:06;1.88;;;1.30;;
11524;SDS011;5819;49.648;8.330;2022-08-06T04:21:43;4.55;;;1.40;;
11524;SDS011;5819;49.648;8.330;2022-08-06T04:24:31;6.60;;;1.48;;
11524;SDS011;5819;49.648;8.330;2022-08-06T04:27:00;2.35;;;1.30;;
11524;SDS011;5819;49.648;8.330;2022-08-06T04:29:35;3.35;;;1.42;;
11524;SDS011;5819;49.648;8.330;2022-08-06T04:32:24;2.03;;;1.65;;
11524;SDS011;5819;49.648;8.330;2022-08-06T04:34:57;3.67;;;1.40;;
11524;SDS011;5819;49.648;8.330;2022-08-06T04:37:47;2.80;;;1.58;;
11524;SDS011;5819;49.648;8.330;2022-08-06T04:40:19;3.15;;;1.30;;
11524;SDS011;5819;49.648;8.330;2022-08-06T04:43:00;1.92;;;1.42;;
11524;SDS011;5819;49.648;8.330;2022-08-06T04:45:29;1.92;;;1.20;;
11524;SDS011;5819;49.648;8.330;2022-08-06T04:48:24;3.05;;;1.13;;
11524;SDS011;5819;49.648;8.330;2022-08-06T04:51:05;2.65;;;1.38;;
11524;SDS011;5819;49.648;8.330;2022-08-06T04:53:43;2.95;;;1.30;;
11524;SDS011;5819;49.648;8.330;2022-08-06T04:56:23;1.85;;;1.00;;
11524;SDS011;5819;49.648;8.330;2022-08-06T04:58:58;2.80;;;1.55;;
11524;SDS011;5819;49.648;8.330;2022-08-06T05:01:27;4.07;;;1.30;;
11524;SDS011;5819;49.648;8.330;2022-08-06T05:04:06;2.67;;;1.15;;
11524;SDS011;5819;49.648;8.330;2022-08-06T05:06:43;1.88;;;1.10;;
11524;SDS011;5819;49.648;8.330;2022-08-06T05:09:17;3.55;;;1.58;;
11524;SDS011;5819;49.648;8.330;2022-08-06T05:12:11;2.15;;;1.35;;
11524;SDS011;5819;49.648;8.330;2022-08-06T05:14:44;2.35;;;1.30;;
11524;SDS011;5819;49.648;8.330;2022-08-06T05:17:19;3.55;;;1.30;;
11524;SDS011;5819;49.648;8.330;2022-08-06T05:19:55;2.45;;;1.20;;
11524;SDS011;5819;49.648;8.330;2022-08-06T05:22:27;2.30;;;1.52;;
11524;SDS011;5819;49.648;8.330;2022-08-06T05:25:20;3.40;;;1.25;;
11524;SDS011;5819;49.648;8.330;2022-08-06T05:27:53;2.70;;;1.30;;
11524;SDS011;5819;49.648;8.330;2022-08-06T05:30:41;2.20;;;1.35;;
11524;SDS011;5819;49.648;8.330;2022-08-06T05:33:11;2.55;;;1.30;;
11524;SDS011;5819;49.648;8.330;2022-08-06T05:35:49;1.60;;;1.23;;
11524;SDS011;5819;49.648;8.330;2022-08-06T05:38:31;2.05;;;1.20;;
11524;SDS011;5819;49.648;8.330;2022-08-06T05:41:04;2.67;;;1.38;;
11524;SDS011;5819;49.648;8.330;2022-08-06T05:43:34;3.05;;;1.20;;
11524;SDS011;5819;49.648;8.330;2022-08-06T05:46:23;7.13;;;1.42;;
11524;SDS011;5819;49.648;8.330;2022-08-06T05:49:00;3.47;;;1.10;;
11524;SDS011;5819;49.648;8.330;2022-08-06T05:51:54;2.95;;;1.05;;
11524;SDS011;5819;49.648;8.330;2022-08-06T05:54:28;1.98;;;1.00;;
11524;SDS011;5819;49.648;8.330;2022-08-06T05:57:06;5.88;;;1.10;;
11524;SDS011;5819;49.648;8.330;2022-08-06T05:59:46;5.43;;;1.27;;
11524;SDS011;5819;49.648;8.330;2022-08-06T06:02:25;2.38;;;1.00;;
11524;SDS011;5819;49.648;8.330;2022-08-06T06:04:57;2.55;;;0.93;;
11524;SDS011;5819;49.648;8.330;2022-08-06T06:07:46;5.20;;;1.20;;
11524;SDS011;5819;49.648;8.330;2022-08-06T06:10:35;2.33;;;1.05;;
11524;SDS011;5819;49.648;8.330;2022-08-06T06:13:10;3.42;;;1.08;;
11524;SDS011;5819;49.648;8.330;2022-08-06T06:16:00;3.00;;;1.25;;
11524;SDS011;5819;49.648;8.330;2022-08-06T06:18:43;3.88;;;0.82;;
11524;SDS011;5819;49.648;8.330;2022-08-06T06:21:25;3.90;;;0.93;;
11524;SDS011;5819;49.648;8.330;2022-08-06T06:24:08;2.67;;;1.20;;
11524;SDS011;5819;49.648;8.330;2022-08-06T06:26:46;5.93;;;1.00;;
11524;SDS011;5819;49.648;8.330;2022-08-06T06:29:29;8.43;;;2.20;;
11524;SDS011;5819;49.648;8.330;2022-08-06T06:32:27;4.80;;;1.05;;
11524;SDS011;5819;49.648;8.330;2022-08-06T06:35:26;2.30;;;1.20;;
11524;SDS011;5819;49.648;8.330;2022-08-06T06:38:10;3.13;;;1.00;;
11524;SDS011;5819;49.648;8.330;2022-08-06T06:40:52;1.98;;;0.90;;
11524;SDS011;5819;49.648;8.330;2022-08-06T06:43:45;3.05;;;0.88;;
11524;SDS011;5819;49.648;8.330;2022-08-06T06:46:22;3.45;;;1.08;;
11524;SDS011;5819;49.648;8.330;2022-08-06T06:49:11;1.55;;;0.65;;
11524;SDS011;5819;49.648;8.330;2022-08-06T06:52:05;2.17;;;0.77;;
11524;SDS011;5819;49.648;8.330;2022-08-06T06:54:39;1.92;;;0.70;;
11524;SDS011;5819;49.648;8.330;2022-08-06T06:57:12;4.07;;;1.02;;
11524;SDS011;5819;49.648;8.330;2022-08-06T06:59:49;2.22;;;0.80;;
11524;SDS011;5819;49.648;8.330;2022-08-06T07:02:41;2.72;;;0.90;;
11524;SDS011;5819;49.648;8.330;2022-08-06T07:05:15;4.25;;;1.08;;
11524;SDS011;5819;49.648;8.330;2022-08-06T07:08:04;3.90;;;1.10;;
11524;SDS011;5819;49.648;8.330;2022-08-06T07:10:36;2.08;;;1.00;;
11524;SDS011;5819;49.648;8.330;2022-08-06T07:13:07;3.67;;;0.90;;
11524;SDS011;5819;49.648;8.330;2022-08-06T07:15:41;4.47;;;1.17;;
11524;SDS011;5819;49.648;8.330;2022-08-06T07:18:23;2.35;;;0.90;;
11524;SDS011;5819;49.648;8.330;2022-08-06T07:21:00;2.35;;;1.13;;
11524;SDS011;5819;49.648;8.330;2022-08-06T07:23:29;3.92;;;1.00;;
11524;SDS011;5819;49.648;8.330;2022-08-06T07:26:21;4.55;;;1.30;;
11524;SDS011;5819;49.648;8.330;2022-08-06T07:28:51;1.58;;;0.80;;
11524;SDS011;5819;49.648;8.330;2022-08-06T07:31:29;3.38;;;1.10;;
11524;SDS011;5819;49.648;8.330;2022-08-06T07:34:03;1.90;;;1.10;;
11524;SDS011;5819;49.648;8.330;2022-08-06T07:36:36;1.58;;;0.95;;
11524;SDS011;5819;49.648;8.330;2022-08-06T07:39:07;1.45;;;1.00;;
11524;SDS011;5819;49.648;8.330;2022-08-06T07:41:41;3.70;;;1.05;;
11524;SDS011;5819;49.648;8.330;2022-08-06T07:44:32;2.60;;;1.05;;
11524;SDS011;5819;49.648;8.330;2022-08-06T07:47:26;1.30;;;0.77;;
11524;SDS011;5819;49.648;8.330;2022-08-06T07:50:19;4.65;;;1.10;;
11524;SDS011;5819;49.648;8.330;2022-08-06T07:52:50;2.95;;;0.90;;
11524;SDS011;5819;49.648;8.330;2022-08-06T07:55:21;1.88;;;1.05;;
11524;SDS011;5819;49.648;8.330;2022-08-06T07:58:05;1.92;;;0.88;;
11524;SDS011;5819;49.648;8.330;2022-08-06T08:00:35;3.42;;;0.82;;
11524;SDS011;5819;49.648;8.330;2022-08-06T08:03:05;4.22;;;1.30;;
11524;SDS011;5819;49.648;8.330;2022-08-06T08:06:13;2.97;;;1.50;;
11524;SDS011;5819;49.648;8.330;2022-08-06T08:08:48;2.33;;;1.10;;
11524;SDS011;5819;49.648;8.330;2022-08-06T08:11:22;4.22;;;1.10;;
11524;SDS011;5819;49.648;8.330;2022-08-06T08:14:14;2.20;;;0.70;;
11524;SDS011;5819;49.648;8.330;2022-08-06T08:16:47;3.15;;;1.10;;
11524;SDS011;5819;49.648;8.330;2022-08-06T08:19:20;2.55;;;0.93;;
11524;SDS011;5819;49.648;8.330;2022-08-06T08:21:51;3.30;;;0.90;;
11524;SDS011;5819;49.648;8.330;2022-08-06T08:24:23;4.15;;;0.90;;
11524;SDS011;5819;49.648;8.330;2022-08-06T08:26:52;3.60;;;1.02;;
11524;SDS011;5819;49.648;8.330;2022-08-06T08:29:42;1.77;;;1.00;;
11524;SDS011;5819;49.648;8.330;2022-08-06T08:32:21;1.98;;;0.90;;
11524;SDS011;5819;49.648;8.330;2022-08-06T08:34:50;1.65;;;0.93;;
11524;SDS011;5819;49.648;8.330;2022-08-06T08:37:23;1.55;;;1.00;;
11524;SDS011;5819;49.648;8.330;2022-08-06T08:39:57;2.42;;;1.35;;
11524;SDS011;5819;49.648;8.330;2022-08-06T08:42:27;1.85;;;0.77;;
11524;SDS011;5819;49.648;8.330;2022-08-06T08:45:02;1.45;;;0.75;;
11524;SDS011;5819;49.648;8.330;2022-08-06T08:47:39;1.48;;;0.90;;
11524;SDS011;5819;49.648;8.330;2022-08-06T08:50:20;3.13;;;0.90;;
11524;SDS011;5819;49.648;8.330;2022-08-06T08:52:55;3.03;;;0.75;;
11524;SDS011;5819;49.648;8.330;2022-08-06T08:55:29;3.65;;;1.50;;
11524;SDS011;5819;49.648;8.330;2022-08-06T08:58:18;1.20;;;0.88;;
11524;SDS011;5819;49.648;8.330;2022-08-06T09:01:09;2.72;;;0.80;;
11524;SDS011;5819;49.648;8.330;2022-08-06T09:03:57;1.63;;;0.85;;
11524;SDS011;5819;49.648;8.330;2022-08-06T09:06:30;1.90;;;0.73;;
11524;SDS011;5819;49.648;8.330;2022-08-06T09:09:06;5.05;;;0.75;;
11524;SDS011;5819;49.648;8.330;2022-08-06T09:11:41;3.67;;;0.93;;
11524;SDS011;5819;49.648;8.330;2022-08-06T09:14:30;2.08;;;0.60;;
11524;SDS011;5819;49.648;8.330;2022-08-06T09:16:59;1.77;;;0.70;;
11524;SDS011;5819;49.648;8.330;2022-08-06T09:19:30;2.28;;;0.68;;
11524;SDS011;5819;49.648;8.330;2022-08-06T09:22:05;1.88;;;0.80;;
11524;SDS011;5819;49.648;8.330;2022-08-06T09:24:36;3.92;;;1.00;;
11524;SDS011;5819;49.648;8.330;2022-08-06T09:27:06;4.28;;;1.05;;
11524;SDS011;5819;49.648;8.330;2022-08-06T09:29:56;2.38;;;0.70;;
11524;SDS011;5819;49.648;8.330;2022-08-06T09:32:38;1.67;;;0.80;;
11524;SDS011;5819;49.648;8.330;2022-08-06T09:35:22;3.97;;;0.70;;
11524;SDS011;5819;49.648;8.330;2022-08-06T09:38:11;3.25;;;0.90;;
11524;SDS011;5819;49.648;8.330;2022-08-06T09:43:48;3.03;;;0.85;;
11524;SDS011;5819;49.648;8.330;2022-08-06T09:46:37;3.15;;;0.80;;
11524;SDS011;5819;49.648;8.330;2022-08-06T09:49:07;2.25;;;0.80;;
11524;SDS011;5819;49.648;8.330;2022-08-06T09:52:15;3.97;;;0.82;;
11524;SDS011;5819;49.648;8.330;2022-08-06T09:54:47;3.15;;;0.80;;
11524;SDS011;5819;49.648;8.330;2022-08-06T09:57:19;1.45;;;0.80;;
11524;SDS011;5819;49.648;8.330;2022-08-06T10:00:02;2.58;;;0.65;;
11524;SDS011;5819;49.648;8.330;2022-08-06T10:02:40;1.88;;;0.60;;
11524;SDS011;5819;49.648;8.330;2022-08-06T10:05:17;2.03;;;0.70;;
11524;SDS011;5819;49.648;8.330;2022-08-06T10:07:48;1.25;;;0.47;;
11524;SDS011;5819;49.648;8.330;2022-08-06T10:10:41;1.55;;;0.77;;
11524;SDS011;5819;49.648;8.330;2022-08-06T10:13:20;1.17;;;0.70;;
11524;SDS011;5819;49.648;8.330;2022-08-06T10:15:52;4.70;;;0.80;;
11524;SDS011;5819;49.648;8.330;2022-08-06T10:18:36;3.42;;;0.70;;
11524;SDS011;5819;49.648;8.330;2022-08-06T10:21:24;1.95;;;0.80;;
11524;SDS011;5819;49.648;8.330;2022-08-06T10:24:07;1.90;;;0.70;;
11524;SDS011;5819;49.648;8.330;2022-08-06T10:26:38;2.17;;;0.77;;
11524;SDS011;5819;49.648;8.330;2022-08-06T10:29:11;2.90;;;0.60;;
11524;SDS011;5819;49.648;8.330;2022-08-06T10:31:48;2.28;;;0.60;;
11524;SDS011;5819;49.648;8.330;2022-08-06T10:34:20;2.60;;;0.80;;
11524;SDS011;5819;49.648;8.330;2022-08-06T10:37:00;1.50;;;0.50;;
11524;SDS011;5819;49.648;8.330;2022-08-06T10:39:55;1.40;;;0.60;;
11524;SDS011;5819;49.648;8.330;2022-08-06T10:42:34;2.42;;;0.80;;
11524;SDS011;5819;49.648;8.330;2022-08-06T10:45:07;2.90;;;0.85;;
11524;SDS011;5819;49.648;8.330;2022-08-06T10:47:39;2.00;;;0.80;;
11524;SDS011;5819;49.648;8.330;2022-08-06T10:50:30;2.30;;;0.63;;
11524;SDS011;5819;49.648;8.330;2022-08-06T10:53:14;1.98;;;0.68;;
11524;SDS011;5819;49.648;8.330;2022-08-06T10:56:04;1.83;;;0.60;;
11524;SDS011;5819;49.648;8.330;2022-08-06T10:58:37;2.72;;;1.42;;
11524;SDS011;5819;49.648;8.330;2022-08-06T11:01:08;2.83;;;0.70;;
11524;SDS011;5819;49.648;8.330;2022-08-06T11:03:50;2.00;;;0.60;;
11524;SDS011;5819;49.648;8.330;2022-08-06T11:06:41;1.38;;;0.73;;
11524;SDS011;5819;49.648;8.330;2022-08-06T11:09:38;1.50;;;0.70;;
11524;SDS011;5819;49.648;8.330;2022-08-06T11:12:34;1.65;;;0.40;;
11524;SDS011;5819;49.648;8.330;2022-08-06T11:15:16;2.15;;;0.63;;
11524;SDS011;5819;49.648;8.330;2022-08-06T11:17:50;0.95;;;0.47;;
11524;SDS011;5819;49.648;8.330;2022-08-06T11:20:39;1.80;;;0.52;;
11524;SDS011;5819;49.648;8.330;2022-08-06T11:26:31;2.03;;;0.70;;
11524;SDS011;5819;49.648;8.330;2022-08-06T11:29:05;1.17;;;0.80;;
11524;SDS011;5819;49.648;8.330;2022-08-06T11:31:39;2.83;;;0.70;;
11524;SDS011;5819;49.648;8.330;2022-08-06T11:40:27;2.00;;;0.90;;
11524;SDS011;5819;49.648;8.330;2022-08-06T11:42:55;1.65;;;0.60;;
11524;SDS011;5819;49.648;8.330;2022-08-06T11:45:23;1.85;;;0.65;;
11524;SDS011;5819;49.648;8.330;2022-08-06T11:48:12;1.33;;;0.65;;
11524;SDS011;5819;49.648;8.330;2022-08-06T11:50:54;2.05;;;0.50;;
11524;SDS011;5819;49.648;8.330;2022-08-06T12:00:16;4.43;;;0.60;;
11524;SDS011;5819;49.648;8.330;2022-08-06T12:02:56;3.85;;;1.13;;
11524;SDS011;5819;49.648;8.330;2022-08-06T12:05:38;2.70;;;1.02;;
11524;SDS011;5819;49.648;8.330;2022-08-06T12:08:28;3.40;;;0.68;;
11524;SDS011;5819;49.648;8.330;2022-08-06T12:11:24;1.50;;;0.52;;
11524;SDS011;5819;49.648;8.330;2022-08-06T12:14:03;1.70;;;0.63;;
11524;SDS011;5819;49.648;8.330;2022-08-06T12:16:53;1.05;;;0.60;;
11524;SDS011;5819;49.648;8.330;2022-08-06T12:19:32;3.75;;;1.40;;
11524;SDS011;5819;49.648;8.330;2022-08-06T12:22:04;1.70;;;0.57;;
11524;SDS011;5819;49.648;8.330;2022-08-06T12:24:34;1.77;;;0.30;;
11524;SDS011;5819;49.648;8.330;2022-08-06T12:27:23;1.65;;;0.60;;
11524;SDS011;5819;49.648;8.330;2022-08-06T12:29:58;0.73;;;0.50;;
11524;SDS011;5819;49.648;8.330;2022-08-06T12:32:29;1.75;;;0.60;;
11524;SDS011;5819;49.648;8.330;2022-08-06T12:34:59;1.85;;;0.70;;
11524;SDS011;5819;49.648;8.330;2022-08-06T12:37:33;1.05;;;0.50;;
11524;SDS011;5819;49.648;8.330;2022-08-06T12:40:16;1.30;;;0.50;;
11524;SDS011;5819;49.648;8.330;2022-08-06T12:43:09;0.55;;;0.50;;
11524;SDS011;5819;49.648;8.330;2022-08-06T12:45:42;1.38;;;0.40;;
11524;SDS011;5819;49.648;8.330;2022-08-06T12:48:31;1.45;;;0.45;;
11524;SDS011;5819;49.648;8.330;2022-08-06T12:51:03;1.08;;;0.43;;
11524;SDS011;5819;49.648;8.330;2022-08-06T12:53:39;1.42;;;0.60;;
11524;SDS011;5819;49.648;8.330;2022-08-06T12:56:16;1.67;;;0.50;;
11524;SDS011;5819;49.648;8.330;2022-08-06T12:59:00;2.65;;;0.43;;
11524;SDS011;5819;49.648;8.330;2022-08-06T13:01:31;2.53;;;0.60;;
11524;SDS011;5819;49.648;8.330;2022-08-06T13:04:22;2.13;;;0.60;;
11524;SDS011;5819;49.648;8.330;2022-08-06T13:06:58;3.53;;;0.65;;
11524;SDS011;5819;49.648;8.330;2022-08-06T13:09:34;1.52;;;0.40;;
11524;SDS011;5819;49.648;8.330;2022-08-06T13:12:25;2.30;;;0.57;;
11524;SDS011;5819;49.648;8.330;2022-08-06T13:15:11;1.75;;;0.47;;
11524;SDS011;5819;49.648;8.330;2022-08-06T13:18:02;1.90;;;0.40;;
11524;SDS011;5819;49.648;8.330;2022-08-06T13:20:52;1.80;;;0.70;;
11524;SDS011;5819;49.648;8.330;2022-08-06T13:23:29;0.63;;;0.40;;
11524;SDS011;5819;49.648;8.330;2022-08-06T13:26:10;2.85;;;1.17;;
11524;SDS011;5819;49.648;8.330;2022-08-06T13:29:13;2.53;;;0.70;;
11524;SDS011;5819;49.648;8.330;2022-08-06T13:32:03;1.85;;;0.40;;
11524;SDS011;5819;49.648;8.330;2022-08-06T13:34:55;3.25;;;0.50;;
11524;SDS011;5819;49.648;8.330;2022-08-06T13:37:40;2.25;;;0.50;;
11524;SDS011;5819;49.648;8.330;2022-08-06T13:40:36;1.10;;;0.63;;
11524;SDS011;5819;49.648;8.330;2022-08-06T13:43:13;1.65;;;0.60;;
11524;SDS011;5819;49.648;8.330;2022-08-06T13:46:05;1.83;;;0.65;;
11524;SDS011;5819;49.648;8.330;2022-08-06T13:48:43;3.28;;;0.50;;
11524;SDS011;5819;49.648;8.330;2022-08-06T13:51:12;0.98;;;0.50;;
11524;SDS011;5819;49.648;8.330;2022-08-06T13:53:52;1.33;;;0.43;;
11524;SDS011;5819;49.648;8.330;2022-08-06T13:56:24;1.85;;;0.40;;
11524;SDS011;5819;49.648;8.330;2022-08-06T13:59:25;2.65;;;0.80;;
11524;SDS011;5819;49.648;8.330;2022-08-06T14:02:09;2.33;;;0.60;;
11524;SDS011;5819;49.648;8.330;2022-08-06T14:04:38;1.65;;;0.50;;
11524;SDS011;5819;49.648;8.330;2022-08-06T14:07:16;3.05;;;0.57;;
11524;SDS011;5819;49.648;8.330;2022-08-06T14:09:45;0.82;;;0.40;;
11524;SDS011;5819;49.648;8.330;2022-08-06T14:12:34;2.13;;;0.60;;
11524;SDS011;5819;49.648;8.330;2022-08-06T14:15:04;2.25;;;0.60;;
11524;SDS011;5819;49.648;8.330;2022-08-06T14:17:42;1.40;;;0.50;;
11524;SDS011;5819;49.648;8.330;2022-08-06T14:20:11;1.52;;;0.55;;
11524;SDS011;5819;49.648;8.330;2022-08-06T14:22:51;1.08;;;0.45;;
11524;SDS011;5819;49.648;8.330;2022-08-06T14:25:19;1.30;;;0.60;;
11524;SDS011;5819;49.648;8.330;2022-08-06T14:27:49;1.50;;;0.50;;
11524;SDS011;5819;49.648;8.330;2022-08-06T14:30:17;1.33;;;0.55;;
11524;SDS011;5819;49.648;8.330;2022-08-06T14:33:00;1.40;;;0.43;;
11524;SDS011;5819;49.648;8.330;2022-08-06T14:35:45;1.83;;;0.50;;
11524;SDS011;5819;49.648;8.330;2022-08-06T14:38:16;1.88;;;0.50;;
11524;SDS011;5819;49.648;8.330;2022-08-06T14:40:45;3.05;;;0.75;;
11524;SDS011;5819;49.648;8.330;2022-08-06T14:43:35;1.23;;;0.55;;
11524;SDS011;5819;49.648;8.330;2022-08-06T14:46:26;1.70;;;0.43;;
11524;SDS011;5819;49.648;8.330;2022-08-06T14:48:59;2.13;;;0.50;;
11524;SDS011;5819;49.648;8.330;2022-08-06T14:51:37;4.68;;;0.82;;
11524;SDS011;5819;49.648;8.330;2022-08-06T14:54:27;1.20;;;0.43;;
11524;SDS011;5819;49.648;8.330;2022-08-06T14:56:57;1.05;;;0.60;;
11524;SDS011;5819;49.648;8.330;2022-08-06T14:59:39;0.98;;;0.52;;
11524;SDS011;5819;49.648;8.330;2022-08-06T15:02:14;1.63;;;0.75;;
11524;SDS011;5819;49.648;8.330;2022-08-06T15:04:44;1.80;;;0.57;;
11524;SDS011;5819;49.648;8.330;2022-08-06T15:07:18;1.88;;;0.60;;
11524;SDS011;5819;49.648;8.330;2022-08-06T15:09:52;1.00;;;0.60;;
11524;SDS011;5819;49.648;8.330;2022-08-06T15:12:42;2.40;;;0.80;;
11524;SDS011;5819;49.648;8.330;2022-08-06T15:15:19;1.58;;;0.68;;
11524;SDS011;5819;49.648;8.330;2022-08-06T15:18:01;1.02;;;0.50;;
11524;SDS011;5819;49.648;8.330;2022-08-06T15:20:51;1.73;;;0.68;;
11524;SDS011;5819;49.648;8.330;2022-08-06T15:23:20;2.78;;;0.70;;
11524;SDS011;5819;49.648;8.330;2022-08-06T15:25:56;2.90;;;1.15;;
11524;SDS011;5819;49.648;8.330;2022-08-06T15:28:44;2.33;;;0.40;;
11524;SDS011;5819;49.648;8.330;2022-08-06T15:31:15;0.98;;;0.40;;
11524;SDS011;5819;49.648;8.330;2022-08-06T15:33:46;2.97;;;0.60;;
11524;SDS011;5819;49.648;8.330;2022-08-06T15:36:15;3.50;;;0.93;;
11524;SDS011;5819;49.648;8.330;2022-08-06T15:38:44;1.17;;;0.73;;
11524;SDS011;5819;49.648;8.330;2022-08-06T15:41:14;2.30;;;0.85;;
11524;SDS011;5819;49.648;8.330;2022-08-06T15:43:42;3.25;;;0.80;;
11524;SDS011;5819;49.648;8.330;2022-08-06T15:46:18;1.40;;;0.90;;
11524;SDS011;5819;49.648;8.330;2022-08-06T15:48:54;1.05;;;0.55;;
11524;SDS011;5819;49.648;8.330;2022-08-06T15:51:26;2.28;;;0.80;;
11524;SDS011;5819;49.648;8.330;2022-08-06T15:53:57;2.60;;;0.85;;
11524;SDS011;5819;49.648;8.330;2022-08-06T15:56:26;1.05;;;0.60;;
11524;SDS011;5819;49.648;8.330;2022-08-06T15:59:05;0.93;;;0.43;;
11524;SDS011;5819;49.648;8.330;2022-08-06T16:01:38;1.23;;;0.70;;
11524;SDS011;5819;49.648;8.330;2022-08-06T16:04:26;1.20;;;0.70;;
11524;SDS011;5819;49.648;8.330;2022-08-06T16:06:57;1.20;;;0.65;;
11524;SDS011;5819;49.648;8.330;2022-08-06T16:09:26;3.00;;;0.60;;
11524;SDS011;5819;49.648;8.330;2022-08-06T16:11:54;1.13;;;0.40;;
11524;SDS011;5819;49.648;8.330;2022-08-06T16:14:24;1.20;;;0.60;;
11524;SDS011;5819;49.648;8.330;2022-08-06T16:17:03;3.35;;;0.63;;
11524;SDS011;5819;49.648;8.330;2022-08-06T16:19:35;1.02;;;0.50;;
11524;SDS011;5819;49.648;8.330;2022-08-06T16:22:17;1.15;;;0.50;;
11524;SDS011;5819;49.648;8.330;2022-08-06T16:24:45;1.58;;;0.50;;
11524;SDS011;5819;49.648;8.330;2022-08-06T16:27:14;2.05;;;0.65;;
11524;SDS011;5819;49.648;8.330;2022-08-06T16:29:43;3.25;;;0.70;;